createdAt,value
2017-08-07T00:01:50.743Z,4.90
2017-08-07T00:04:19.072Z,5.90
2017-08-07T00:06:47.380Z,5.38
2017-08-07T00:09:15.713Z,4.80
2017-08-07T00:11:44.024Z,5.36
2017-08-07T00:14:12.348Z,5.02
2017-08-07T00:16:40.665Z,5.10
2017-08-07T00:19:09.005Z,5.74
2017-08-07T00:21:37.311Z,6.34
2017-08-07T00:24:05.651Z,6.36
2017-08-07T00:26:33.962Z,5.18
2017-08-07T00:29:02.276Z,5.52
2017-08-07T00:31:30.609Z,5.22
2017-08-07T00:33:58.928Z,5.12
2017-08-07T00:36:27.259Z,5.52
2017-08-07T00:38:55.568Z,5.42
2017-08-07T00:41:23.899Z,5.54
2017-08-07T00:43:52.208Z,4.52
2017-08-07T00:46:20.566Z,5.40
2017-08-07T00:48:48.875Z,6.00
2017-08-07T00:51:17.189Z,5.04
2017-08-07T00:53:45.521Z,5.42
2017-08-07T00:56:13.848Z,5.78
2017-08-07T00:58:42.194Z,6.80
2017-08-07T01:01:10.503Z,9.68
2017-08-07T01:03:38.842Z,15.62
2017-08-07T01:06:07.154Z,14.20
2017-08-07T01:08:35.481Z,5.80
2017-08-07T01:11:03.790Z,5.58
2017-08-07T01:13:32.133Z,5.14
2017-08-07T01:16:00.449Z,11.60
2017-08-07T01:18:28.756Z,7.64
2017-08-07T01:20:57.087Z,8.06
2017-08-07T01:23:25.392Z,8.24
2017-08-07T01:25:53.728Z,13.58
2017-08-07T01:28:22.039Z,5.54
2017-08-07T01:30:50.368Z,8.12
2017-08-07T01:33:18.698Z,6.62
2017-08-07T01:35:47.051Z,7.28
2017-08-07T01:38:15.363Z,7.48
2017-08-07T01:40:43.676Z,12.34
2017-08-07T01:43:12.018Z,7.18
2017-08-07T01:45:40.355Z,7.88
2017-08-07T01:48:08.690Z,6.60
2017-08-07T01:50:37.004Z,6.54
2017-08-07T01:53:05.340Z,21.66
2017-08-07T01:55:33.665Z,13.00
2017-08-07T01:58:01.999Z,22.10
2017-08-07T02:00:30.325Z,49.10
2017-08-07T02:02:58.648Z,27.54
2017-08-07T02:05:26.992Z,26.72
2017-08-07T02:07:55.304Z,42.46
2017-08-07T02:10:23.649Z,12.98
2017-08-07T02:12:51.968Z,41.08
2017-08-07T02:15:20.419Z,13.68
2017-08-07T02:17:48.737Z,13.58
2017-08-07T02:20:17.085Z,6.56
2017-08-07T02:22:45.420Z,9.04
2017-08-07T02:25:13.737Z,21.68
2017-08-07T02:27:42.088Z,21.96
2017-08-07T02:30:10.408Z,40.10
2017-08-07T02:32:38.743Z,56.56
2017-08-07T02:35:07.065Z,24.16
2017-08-07T02:37:35.399Z,56.12
2017-08-07T02:40:03.707Z,20.16
2017-08-07T02:42:32.043Z,29.64
2017-08-07T02:45:00.353Z,28.98
2017-08-07T02:47:28.671Z,9.96
2017-08-07T02:49:56.999Z,10.92
2017-08-07T02:52:25.317Z,18.72
2017-08-07T02:54:53.727Z,9.08
2017-08-07T02:57:22.030Z,6.58
2017-08-07T02:59:50.355Z,15.66
2017-08-07T03:02:18.661Z,7.82
2017-08-07T03:04:47.001Z,6.18
2017-08-07T03:07:15.318Z,7.94
2017-08-07T03:09:43.627Z,5.70
2017-08-07T03:12:11.964Z,5.38
2017-08-07T03:14:39.512Z,5.66
2017-08-07T03:17:07.836Z,12.38
2017-08-07T03:19:36.138Z,8.72
2017-08-07T03:22:04.468Z,7.22
2017-08-07T03:24:32.780Z,12.82
2017-08-07T03:27:01.111Z,11.70
2017-08-07T03:29:29.425Z,7.76
2017-08-07T03:31:57.763Z,9.30
2017-08-07T03:34:26.074Z,8.80
2017-08-07T03:36:54.394Z,5.30
2017-08-07T03:39:22.727Z,16.52
2017-08-07T03:41:51.035Z,7.26
2017-08-07T03:44:19.362Z,10.64
2017-08-07T03:46:47.669Z,7.74
2017-08-07T03:49:16.013Z,8.40
2017-08-07T03:51:44.314Z,9.76
2017-08-07T03:54:12.665Z,7.18
2017-08-07T03:56:40.965Z,7.40
2017-08-07T03:59:08.546Z,7.84
2017-08-07T04:01:36.858Z,6.64
2017-08-07T04:04:05.160Z,6.78
2017-08-07T04:06:33.498Z,8.88
2017-08-07T04:09:01.805Z,6.46
2017-08-07T04:11:30.137Z,6.32
2017-08-07T04:13:58.437Z,5.90
2017-08-07T04:16:26.764Z,6.36
2017-08-07T04:18:55.069Z,5.70
2017-08-07T04:21:23.417Z,5.78
2017-08-07T04:23:51.717Z,5.46
2017-08-07T04:26:20.021Z,7.78
2017-08-07T04:28:48.350Z,5.66
2017-08-07T04:31:16.655Z,6.76
2017-08-07T04:33:44.984Z,6.38
2017-08-07T04:36:13.288Z,6.86
2017-08-07T04:38:41.622Z,6.22
2017-08-07T04:41:09.939Z,18.94
2017-08-07T04:43:38.271Z,6.52
2017-08-07T04:46:06.583Z,6.08
2017-08-07T04:48:34.891Z,5.16
2017-08-07T04:51:03.222Z,5.06
2017-08-07T04:53:31.556Z,4.92
2017-08-07T04:55:59.897Z,4.08
2017-08-07T04:58:28.202Z,4.46
2017-08-07T05:00:57.450Z,3.80
2017-08-07T05:03:25.751Z,6.14
2017-08-07T05:05:54.084Z,4.84
2017-08-07T05:08:22.393Z,4.68
2017-08-07T05:10:50.744Z,4.18
2017-08-07T05:13:19.050Z,4.46
2017-08-07T05:15:47.359Z,4.08
2017-08-07T05:18:15.692Z,5.28
2017-08-07T05:20:44.003Z,4.50
2017-08-07T05:23:12.345Z,4.10
2017-08-07T05:25:40.651Z,4.66
2017-08-07T05:28:09.005Z,5.56
2017-08-07T05:30:37.320Z,5.40
2017-08-07T05:33:05.643Z,4.78
2017-08-07T05:35:33.954Z,3.62
2017-08-07T05:38:02.284Z,3.86
2017-08-07T05:40:30.591Z,3.88
2017-08-07T05:42:58.900Z,3.56
2017-08-07T05:45:27.236Z,3.70
2017-08-07T05:47:55.536Z,4.08
2017-08-07T05:50:23.884Z,4.40
2017-08-07T05:52:52.195Z,4.26
2017-08-07T05:55:20.545Z,4.52
2017-08-07T05:57:48.885Z,4.38
2017-08-07T06:00:17.229Z,7.56
2017-08-07T06:02:45.553Z,12.56
2017-08-07T06:05:13.870Z,11.44
2017-08-07T06:07:42.204Z,21.80
2017-08-07T06:10:10.516Z,47.02
2017-08-07T06:12:38.846Z,30.26
2017-08-07T06:15:07.158Z,9.38
2017-08-07T06:17:35.503Z,10.04
2017-08-07T06:20:03.812Z,7.00
2017-08-07T06:22:33.072Z,9.54
2017-08-07T06:25:01.385Z,5.96
2017-08-07T06:27:29.691Z,9.16
2017-08-07T06:29:58.022Z,5.50
2017-08-07T06:32:26.345Z,12.18
2017-08-07T06:34:54.679Z,7.22
2017-08-07T06:37:22.993Z,7.04
2017-08-07T06:39:51.323Z,5.92
2017-08-07T06:42:19.636Z,7.88
2017-08-07T06:44:47.963Z,10.42
2017-08-07T06:47:16.272Z,6.04
2017-08-07T06:49:44.607Z,7.88
2017-08-07T06:52:12.916Z,8.34
2017-08-07T06:54:41.219Z,6.12
2017-08-07T06:57:09.556Z,5.62
2017-08-07T06:59:37.861Z,4.82
2017-08-07T07:02:06.183Z,5.62
2017-08-07T07:04:34.518Z,6.10
2017-08-07T07:07:02.867Z,6.02
2017-08-07T07:09:31.172Z,5.42
2017-08-07T07:11:59.478Z,5.60
2017-08-07T07:14:27.809Z,5.06
2017-08-07T07:16:56.114Z,5.34
2017-08-07T07:19:24.441Z,5.18
2017-08-07T07:21:52.742Z,4.80
2017-08-07T07:24:21.068Z,5.52
2017-08-07T07:26:49.373Z,6.44
2017-08-07T07:29:17.698Z,5.90
2017-08-07T07:31:46.024Z,4.88
2017-08-07T07:34:14.363Z,5.10
2017-08-07T07:36:42.667Z,5.38
2017-08-07T07:39:10.979Z,4.78
2017-08-07T07:41:39.304Z,5.04
2017-08-07T07:44:07.607Z,5.74
2017-08-07T07:46:35.940Z,5.48
2017-08-07T07:49:04.256Z,5.38
2017-08-07T07:51:32.577Z,5.76
2017-08-07T07:54:02.888Z,7.00
2017-08-07T07:56:31.213Z,5.42
2017-08-07T07:58:59.521Z,5.18
2017-08-07T08:01:27.851Z,5.00
2017-08-07T08:03:56.151Z,5.04
2017-08-07T08:06:24.455Z,5.20
2017-08-07T08:08:52.776Z,4.86
2017-08-07T08:11:21.079Z,5.56
2017-08-07T08:13:49.428Z,4.44
2017-08-07T08:16:17.728Z,4.94
2017-08-07T08:18:46.051Z,4.92
2017-08-07T08:21:15.139Z,3.58
2017-08-07T08:23:43.490Z,3.82
2017-08-07T08:26:11.797Z,4.52
2017-08-07T08:28:40.108Z,4.30
2017-08-07T08:31:08.444Z,4.42
2017-08-07T08:33:36.749Z,3.42
2017-08-07T08:36:05.071Z,3.82
2017-08-07T08:38:33.375Z,4.20
2017-08-07T08:41:01.714Z,10.20
2017-08-07T08:43:30.016Z,4.36
2017-08-07T08:45:58.350Z,5.08
2017-08-07T08:48:26.660Z,3.50
2017-08-07T08:50:55.003Z,4.62
2017-08-07T08:53:23.306Z,3.82
2017-08-07T08:55:51.627Z,3.36
2017-08-07T08:58:19.960Z,4.62
2017-08-07T09:00:48.263Z,3.50
2017-08-07T09:03:16.593Z,5.04
2017-08-07T09:05:44.900Z,4.20
2017-08-07T09:08:13.231Z,3.98
2017-08-07T09:10:41.539Z,3.50
2017-08-07T09:13:09.869Z,3.46
2017-08-07T09:15:38.182Z,3.70
2017-08-07T09:18:06.525Z,3.44
2017-08-07T09:20:34.930Z,3.42
2017-08-07T09:23:03.234Z,3.42
2017-08-07T09:25:31.568Z,3.92
2017-08-07T09:27:59.886Z,3.08
2017-08-07T09:30:28.220Z,3.50
2017-08-07T09:32:56.528Z,3.44
2017-08-07T09:35:24.852Z,3.20
2017-08-07T09:37:53.156Z,3.56
2017-08-07T09:40:21.484Z,3.68
2017-08-07T09:42:49.787Z,3.62
2017-08-07T09:45:18.117Z,4.02
2017-08-07T09:47:46.441Z,4.12
2017-08-07T09:50:14.783Z,6.00
2017-08-07T09:52:43.133Z,3.84
2017-08-07T09:55:11.436Z,5.54
2017-08-07T09:57:39.758Z,3.56
2017-08-07T10:00:08.060Z,4.16
2017-08-07T10:02:36.384Z,5.34
2017-08-07T10:05:04.689Z,4.50
2017-08-07T10:07:33.015Z,34.08
2017-08-07T10:10:01.335Z,29.76
2017-08-07T10:12:29.666Z,5.92
2017-08-07T10:14:57.205Z,3.70
2017-08-07T10:17:25.504Z,5.88
2017-08-07T10:19:53.827Z,3.64
2017-08-07T10:22:22.137Z,6.22
2017-08-07T10:24:50.469Z,3.60
2017-08-07T10:27:18.780Z,24.92
2017-08-07T10:29:47.112Z,12.62
2017-08-07T10:32:15.427Z,3.94
2017-08-07T10:34:43.759Z,5.04
2017-08-07T10:37:12.068Z,5.02
2017-08-07T10:39:40.377Z,4.32
2017-08-07T10:42:08.703Z,4.58
2017-08-07T10:44:37.012Z,4.84
2017-08-07T10:47:05.338Z,3.80
2017-08-07T10:49:33.663Z,3.38
2017-08-07T10:52:01.988Z,5.02
2017-08-07T10:54:30.311Z,6.42
2017-08-07T10:56:58.638Z,3.68
2017-08-07T10:59:26.179Z,4.34
2017-08-07T11:01:54.807Z,4.64
2017-08-07T11:04:23.115Z,5.16
2017-08-07T11:06:51.427Z,6.48
2017-08-07T11:09:19.752Z,6.20
2017-08-07T11:11:48.060Z,4.26
2017-08-07T11:14:16.396Z,4.14
2017-08-07T11:16:44.693Z,3.80
2017-08-07T11:19:13.023Z,4.18
2017-08-07T11:21:41.337Z,3.70
2017-08-07T11:24:09.671Z,3.70
2017-08-07T11:26:37.974Z,3.96
2017-08-07T11:29:06.303Z,5.08
2017-08-07T11:31:34.611Z,5.52
2017-08-07T11:34:02.960Z,3.96
2017-08-07T11:36:31.270Z,4.20
2017-08-07T11:38:59.588Z,3.58
2017-08-07T11:41:27.911Z,4.40
2017-08-07T11:43:55.457Z,3.76
2017-08-07T11:46:23.843Z,4.32
2017-08-07T11:48:52.146Z,5.08
2017-08-07T11:51:20.481Z,3.72
2017-08-07T11:53:48.796Z,3.52
2017-08-07T11:56:17.134Z,3.90
2017-08-07T11:58:45.438Z,4.26
2017-08-07T12:01:13.768Z,8.64
2017-08-07T12:03:42.082Z,4.28
2017-08-07T12:06:10.405Z,5.42
2017-08-07T12:08:38.728Z,4.20
2017-08-07T12:11:07.023Z,3.80
2017-08-07T12:13:35.358Z,4.14
2017-08-07T12:16:03.754Z,5.84
2017-08-07T12:18:32.084Z,3.88
2017-08-07T12:21:00.386Z,5.14
2017-08-07T12:23:28.707Z,5.34
2017-08-07T12:25:57.016Z,3.94
2017-08-07T12:28:25.351Z,3.48
2017-08-07T12:30:53.660Z,3.42
2017-08-07T12:33:21.963Z,3.68
2017-08-07T12:35:50.295Z,3.96
2017-08-07T12:38:18.623Z,3.60
2017-08-07T12:40:46.946Z,3.80
2017-08-07T12:43:15.246Z,4.56
2017-08-07T12:45:43.580Z,3.28
2017-08-07T12:48:11.889Z,5.20
2017-08-07T12:50:40.237Z,5.98
2017-08-07T12:53:08.539Z,3.88
2017-08-07T12:55:36.865Z,3.42
2017-08-07T12:58:05.193Z,3.96
2017-08-07T13:00:33.515Z,3.64
2017-08-07T13:03:01.841Z,3.58
2017-08-07T13:05:30.148Z,4.54
2017-08-07T13:07:58.480Z,4.00
2017-08-07T13:10:26.782Z,5.00
2017-08-07T13:12:55.117Z,3.96
2017-08-07T13:15:23.420Z,4.12
2017-08-07T13:17:51.773Z,4.12
2017-08-07T13:20:20.092Z,5.20
2017-08-07T13:22:48.419Z,3.54
2017-08-07T13:25:16.752Z,3.74
2017-08-07T13:27:45.067Z,5.10
2017-08-07T13:30:13.394Z,3.94
2017-08-07T13:32:41.724Z,4.10
2017-08-07T13:35:10.099Z,5.60
2017-08-07T13:37:38.408Z,5.48
2017-08-07T13:40:06.797Z,5.10
2017-08-07T13:42:35.111Z,4.14
2017-08-07T13:45:03.420Z,4.30
2017-08-07T13:47:31.747Z,3.88
2017-08-07T13:50:00.064Z,3.88
2017-08-07T13:52:28.394Z,4.66
2017-08-07T13:54:56.738Z,3.90
2017-08-07T13:57:25.068Z,4.36
2017-08-07T13:59:53.375Z,6.98
2017-08-07T14:02:21.727Z,8.94
2017-08-07T14:04:50.042Z,4.70
2017-08-07T14:07:18.343Z,4.22
2017-08-07T14:09:46.669Z,5.84
2017-08-07T14:12:14.212Z,4.44
2017-08-07T14:14:42.543Z,9.00
2017-08-07T14:17:10.843Z,5.10
2017-08-07T14:19:39.198Z,4.02
2017-08-07T14:22:07.511Z,3.46
2017-08-07T14:24:35.853Z,5.06
2017-08-07T14:27:04.167Z,4.00
2017-08-07T14:29:32.482Z,3.96
2017-08-07T14:32:00.803Z,3.68
2017-08-07T14:34:29.115Z,10.78
2017-08-07T14:36:57.504Z,4.34
2017-08-07T14:39:25.817Z,4.30
2017-08-07T14:41:54.147Z,5.82
2017-08-07T14:44:22.451Z,5.10
2017-08-07T14:46:50.768Z,4.04
2017-08-07T14:49:19.101Z,4.54
2017-08-07T14:51:47.412Z,6.22
2017-08-07T14:54:14.971Z,4.62
2017-08-07T14:56:43.275Z,3.92
2017-08-07T14:59:11.617Z,4.52
2017-08-07T15:01:39.923Z,3.94
2017-08-07T15:04:07.481Z,4.08
2017-08-07T15:06:35.815Z,4.02
2017-08-07T15:09:04.125Z,4.00
2017-08-07T15:11:32.470Z,4.30
2017-08-07T15:14:00.775Z,3.78
2017-08-07T15:16:29.107Z,3.80
2017-08-07T15:18:57.414Z,4.38
2017-08-07T15:21:25.714Z,4.10
2017-08-07T15:23:54.047Z,3.90
2017-08-07T15:26:22.355Z,4.54
2017-08-07T15:28:50.681Z,3.98
2017-08-07T15:31:18.988Z,5.74
2017-08-07T15:33:47.310Z,4.34
2017-08-07T15:36:15.628Z,3.90
2017-08-07T15:38:43.936Z,4.96
2017-08-07T15:41:12.266Z,4.02
2017-08-07T15:43:40.576Z,4.20
2017-08-07T15:46:08.902Z,4.26
2017-08-07T15:48:37.215Z,4.08
2017-08-07T15:51:05.544Z,4.14
2017-08-07T15:53:33.848Z,4.04
2017-08-07T15:56:02.148Z,4.12
2017-08-07T15:58:30.489Z,4.56
2017-08-07T16:00:58.828Z,4.30
2017-08-07T16:03:27.151Z,4.02
2017-08-07T16:05:55.468Z,5.68
2017-08-07T16:08:23.849Z,4.10
2017-08-07T16:10:52.718Z,3.96
2017-08-07T16:13:21.071Z,4.44
2017-08-07T16:15:49.385Z,4.86
2017-08-07T16:18:17.713Z,4.12
2017-08-07T16:20:46.063Z,4.52
2017-08-07T16:23:14.371Z,5.28
2017-08-07T16:25:42.705Z,4.86
2017-08-07T16:28:11.015Z,6.18
2017-08-07T16:30:39.361Z,3.98
2017-08-07T16:33:07.676Z,4.00
2017-08-07T16:35:35.984Z,4.36
2017-08-07T16:38:04.308Z,5.70
2017-08-07T16:40:32.645Z,4.88
2017-08-07T16:43:00.967Z,4.88
2017-08-07T16:45:29.291Z,4.78
2017-08-07T16:47:57.619Z,5.04
2017-08-07T16:50:25.933Z,4.56
2017-08-07T16:52:54.317Z,5.36
2017-08-07T16:55:22.620Z,5.46
2017-08-07T16:57:50.926Z,5.08
2017-08-07T17:00:19.250Z,4.60
2017-08-07T17:02:47.562Z,4.32
2017-08-07T17:05:15.883Z,4.06
2017-08-07T17:07:44.200Z,4.48
2017-08-07T17:10:12.532Z,4.26
2017-08-07T17:12:40.852Z,4.38
2017-08-07T17:15:09.174Z,3.98
2017-08-07T17:17:37.485Z,5.04
2017-08-07T17:20:05.791Z,4.96
2017-08-07T17:22:34.119Z,4.86
2017-08-07T17:25:02.423Z,6.58
2017-08-07T17:27:30.747Z,4.26
2017-08-07T17:29:59.059Z,4.50
2017-08-07T17:32:27.386Z,4.00
2017-08-07T17:34:55.699Z,4.46
2017-08-07T17:37:24.011Z,4.50
2017-08-07T17:39:52.344Z,8.24
2017-08-07T17:42:20.675Z,4.70
2017-08-07T17:44:49.006Z,4.00
2017-08-07T17:47:17.313Z,7.00
2017-08-07T17:49:45.646Z,7.06
2017-08-07T17:52:13.951Z,4.78
2017-08-07T17:54:42.260Z,4.56
2017-08-07T17:57:10.596Z,4.00
2017-08-07T17:59:38.906Z,4.50
2017-08-07T18:02:07.230Z,4.74
2017-08-07T18:04:35.535Z,4.08
2017-08-07T18:07:03.868Z,3.62
2017-08-07T18:09:32.179Z,4.84
2017-08-07T18:12:00.512Z,4.54
2017-08-07T18:14:28.823Z,4.48
2017-08-07T18:16:57.149Z,5.54
2017-08-07T18:19:25.480Z,4.96
2017-08-07T18:21:53.853Z,4.78
2017-08-07T18:24:22.230Z,4.32
2017-08-07T18:26:50.549Z,4.22
2017-08-07T18:29:18.879Z,4.28
2017-08-07T18:31:47.200Z,5.00
2017-08-07T18:34:15.540Z,4.58
2017-08-07T18:36:43.885Z,5.10
2017-08-07T18:39:12.220Z,6.54
2017-08-07T18:41:40.551Z,4.98
2017-08-07T18:44:08.868Z,4.82
2017-08-07T18:46:37.213Z,4.76
2017-08-07T18:49:05.520Z,10.40
2017-08-07T18:51:33.862Z,5.54
2017-08-07T18:54:01.402Z,4.86
2017-08-07T18:56:29.727Z,4.60
2017-08-07T18:58:58.052Z,4.60
2017-08-07T19:01:26.364Z,6.02
2017-08-07T19:03:54.695Z,4.14
2017-08-07T19:06:23.572Z,5.56
2017-08-07T19:08:51.900Z,5.70
2017-08-07T19:11:20.211Z,4.46
2017-08-07T19:13:48.546Z,4.64
2017-08-07T19:16:16.852Z,4.84
2017-08-07T19:18:45.201Z,5.10
2017-08-07T19:21:13.519Z,5.32
2017-08-07T19:23:41.828Z,5.78
2017-08-07T19:26:10.155Z,5.34
2017-08-07T19:28:38.475Z,5.64
2017-08-07T19:31:06.804Z,7.04
2017-08-07T19:33:35.143Z,6.06
2017-08-07T19:36:03.469Z,7.14
2017-08-07T19:38:31.776Z,5.76
2017-08-07T19:41:00.111Z,4.90
2017-08-07T19:43:28.427Z,7.26
2017-08-07T19:45:56.738Z,8.44
2017-08-07T19:48:25.064Z,7.30
2017-08-07T19:50:53.376Z,5.50
2017-08-07T19:53:21.700Z,5.20
2017-08-07T19:55:50.016Z,5.62
2017-08-07T19:58:18.351Z,5.94
2017-08-07T20:00:46.671Z,6.36
2017-08-07T20:03:15.023Z,6.88
2017-08-07T20:05:43.341Z,6.44
2017-08-07T20:08:11.651Z,5.84
2017-08-07T20:10:39.976Z,7.22
2017-08-07T20:13:08.286Z,11.04
2017-08-07T20:15:36.623Z,16.04
2017-08-07T20:18:04.948Z,11.68
2017-08-07T20:20:33.271Z,16.38
2017-08-07T20:23:01.612Z,14.58
2017-08-07T20:25:29.940Z,33.60
2017-08-07T20:27:58.257Z,13.12
2017-08-07T20:30:26.595Z,35.64
2017-08-07T20:32:54.919Z,20.80
2017-08-07T20:35:23.246Z,45.06
2017-08-07T20:37:51.573Z,60.20
2017-08-07T20:40:19.919Z,53.58
2017-08-07T20:42:48.226Z,62.02
2017-08-07T20:45:16.536Z,55.20
2017-08-07T20:47:44.871Z,47.84
2017-08-07T20:50:13.180Z,34.96
2017-08-07T20:52:41.537Z,22.04
2017-08-07T20:55:09.843Z,41.62
2017-08-07T20:57:38.218Z,46.58
2017-08-07T21:00:06.531Z,33.70
2017-08-07T21:02:34.863Z,45.92
2017-08-07T21:05:03.177Z,57.60
2017-08-07T21:07:31.519Z,25.24
2017-08-07T21:09:59.832Z,14.90
2017-08-07T21:12:28.152Z,27.44
2017-08-07T21:14:56.486Z,15.66
2017-08-07T21:17:24.807Z,36.86
2017-08-07T21:19:53.135Z,14.40
2017-08-07T21:22:21.462Z,11.14
2017-08-07T21:24:49.796Z,10.86
2017-08-07T21:27:18.136Z,20.14
2017-08-07T21:29:46.509Z,25.54
2017-08-07T21:32:14.859Z,30.62
2017-08-07T21:34:43.200Z,13.66
2017-08-07T21:37:11.514Z,14.48
2017-08-07T21:39:39.861Z,9.22
2017-08-07T21:42:08.170Z,9.08
2017-08-07T21:44:36.550Z,15.54
2017-08-07T21:47:04.887Z,10.14
2017-08-07T21:49:33.185Z,8.92
2017-08-07T21:52:01.510Z,9.50
2017-08-07T21:54:29.812Z,7.22
2017-08-07T21:56:58.139Z,8.20
2017-08-07T21:59:26.452Z,8.80
2017-08-07T22:01:54.797Z,10.78
2017-08-07T22:04:23.102Z,8.68
2017-08-07T22:06:51.403Z,7.62
2017-08-07T22:09:19.737Z,60.42
2017-08-07T22:11:48.059Z,7.36
2017-08-07T22:14:16.390Z,6.74
2017-08-07T22:16:44.721Z,7.68
2017-08-07T22:19:13.047Z,8.90
2017-08-07T22:21:41.372Z,10.04
2017-08-07T22:24:09.703Z,8.28
2017-08-07T22:26:38.027Z,7.18
2017-08-07T22:29:06.368Z,7.22
2017-08-07T22:31:34.681Z,7.24
2017-08-07T22:34:02.990Z,49.46
2017-08-07T22:36:31.323Z,10.94
2017-08-07T22:38:59.631Z,7.62
2017-08-07T22:41:27.956Z,8.92
2017-08-07T22:43:56.259Z,8.58
2017-08-07T22:46:24.587Z,7.40
2017-08-07T22:48:52.891Z,8.26
2017-08-07T22:51:21.218Z,7.24
2017-08-07T22:53:49.520Z,7.00
2017-08-07T22:56:17.877Z,7.60
2017-08-07T22:58:46.179Z,7.68
2017-08-07T23:01:14.506Z,7.20
2017-08-07T23:03:42.832Z,7.32
2017-08-07T23:06:11.154Z,7.38
2017-08-07T23:08:39.492Z,7.10
2017-08-07T23:11:07.809Z,9.44
2017-08-07T23:13:35.367Z,7.68
2017-08-07T23:16:03.695Z,7.46
2017-08-07T23:18:32.024Z,7.58
2017-08-07T23:21:00.327Z,7.58
2017-08-07T23:23:28.667Z,6.70
2017-08-07T23:25:56.979Z,7.62
2017-08-07T23:28:25.288Z,7.88
2017-08-07T23:30:53.636Z,8.16
2017-08-07T23:33:21.947Z,7.28
2017-08-07T23:35:50.283Z,7.76
2017-08-07T23:38:18.597Z,7.18
2017-08-07T23:40:46.920Z,7.14
2017-08-07T23:43:15.227Z,8.82
2017-08-07T23:45:43.562Z,7.00
2017-08-07T23:48:11.868Z,10.54
2017-08-07T23:50:40.171Z,9.52
2017-08-07T23:53:08.498Z,6.68
2017-08-07T23:55:36.803Z,11.24
2017-08-07T23:58:05.137Z,12.84
